Time;durP1;ratioP1;P1;durP2;ratioP2;P2;SDS_P1;SDS_P2;PMS_P1;PMS_P2;Temp;Humidity;BMP_temperature;BMP_pressure;BME280_temperature;BME280_humidity;BME280_pressure;Samples;Min_cycle;Max_cycle;Signal;HPM_P1;HPM_P2
2022/12/05 00:04:51;;;;;;;20.42;15.57;;;;;;;4.56;80.06;100003.19;10326047;28;20129;-62
2022/12/05 00:09:53;;;;;;;18.17;15.13;;;;;;;4.51;79.99;100005.22;10333172;28;20133;-63
2022/12/05 00:14:54;;;;;;;18.08;15.57;;;;;;;4.55;79.41;100008.53;10323532;28;20058;-62
2022/12/05 00:19:56;;;;;;;18.48;14.80;;;;;;;4.56;79.24;100010.22;10323078;28;20050;-61
2022/12/05 00:24:57;;;;;;;19.98;15.73;;;;;;;4.33;79.46;99985.22;10325329;28;20719;-63
2022/12/05 00:29:59;;;;;;;18.80;14.98;;;;;;;4.37;81.21;100007.84;10321963;28;20272;-63
2022/12/05 00:35:01;;;;;;;19.30;15.23;;;;;;;4.41;80.98;100030.41;10324342;28;20050;-61
2022/12/05 00:40:02;;;;;;;18.38;15.55;;;;;;;4.48;80.61;100034.41;10321516;28;20046;-63
2022/12/05 00:45:04;;;;;;;19.17;15.05;;;;;;;4.46;80.26;100033.66;10321123;28;20138;-64
2022/12/05 00:50:06;;;;;;;17.77;15.02;;;;;;;4.52;80.22;100038.56;10317737;28;20116;-63
2022/12/05 00:55:08;;;;;;;21.45;16.85;;;;;;;4.50;80.38;100040.41;10318891;28;20891;-62
2022/12/05 01:00:10;;;;;;;19.48;15.48;;;;;;;4.56;80.06;100040.09;10316773;28;20172;-64
2022/12/05 01:05:11;;;;;;;22.17;16.27;;;;;;;4.54;80.57;100052.50;10317678;28;20046;-64
2022/12/05 01:10:13;;;;;;;20.27;16.83;;;;;;;4.47;80.83;100063.47;10314796;28;20057;-63
2022/12/05 01:15:14;;;;;;;18.95;15.13;;;;;;;4.55;80.86;100070.00;10320137;28;20058;-62
2022/12/05 01:20:15;;;;;;;19.92;15.60;;;;;;;4.49;80.91;100077.41;10317971;28;20308;-63
2022/12/05 01:25:17;;;;;;;18.38;15.00;;;;;;;4.50;81.54;100077.31;10316571;28;20056;-61
2022/12/05 01:30:20;;;;;;;18.45;15.77;;;;;;;4.51;81.22;100070.28;10316810;28;20073;-63
2022/12/05 01:35:21;;;;;;;21.13;16.90;;;;;;;4.55;81.24;100075.28;10319595;28;20057;-61
2022/12/05 01:40:23;;;;;;;18.80;15.52;;;;;;;4.58;81.08;100079.53;10318354;28;20042;-61
2022/12/05 01:45:38;;;;;;;18.35;15.63;;;;;;;4.60;80.86;100086.41;10314566;28;20046;-63
2022/12/05 01:50:40;;;;;;;18.20;15.45;;;;;;;4.50;80.82;100074.69;10314013;28;20046;-62
2022/12/05 01:55:41;;;;;;;20.58;17.05;;;;;;;4.59;80.92;100089.13;10314704;28;20485;-62
2022/12/05 02:00:43;;;;;;;20.95;15.88;;;;;;;4.56;81.66;100090.19;10314338;28;20161;-64
2022/12/05 02:05:48;;;;;;;22.75;17.30;;;;;;;4.54;81.25;100070.94;10315822;28;20061;-62
2022/12/05 02:10:53;;;;;;;20.67;16.42;;;;;;;4.58;82.17;100090.91;10318653;28;20041;-63
2022/12/05 02:16:26;;;;;;;19.50;16.75;;;;;;;4.56;81.65;100087.53;10312445;28;21773;-63
2022/12/05 02:21:39;;;;;;;19.00;16.15;;;;;;;4.62;82.05;100093.38;10307544;28;20061;-63
2022/12/05 02:26:54;;;;;;;20.98;15.73;;;;;;;4.63;81.75;100092.44;10315198;28;20052;-62
2022/12/05 02:32:23;;;;;;;19.58;16.92;;;;;;;4.77;81.47;100103.88;10311992;28;20042;-63
2022/12/05 02:37:37;;;;;;;22.27;16.58;;;;;;;4.69;81.15;100100.84;10306499;28;20080;-64
2022/12/05 02:42:50;;;;;;;19.67;16.03;;;;;;;4.67;81.44;100100.09;10304612;28;20076;-63
2022/12/05 02:47:53;;;;;;;19.42;16.63;;;;;;;4.67;81.87;100089.53;10309084;28;20280;-62
2022/12/05 02:52:59;;;;;;;21.17;16.52;;;;;;;4.57;81.32;100078.66;10308212;28;20118;-63
2022/12/05 02:58:05;;;;;;;19.55;15.82;;;;;;;4.70;81.39;100088.50;10308770;28;20060;-63
2022/12/05 03:03:13;;;;;;;19.52;16.10;;;;;;;4.66;81.15;100081.72;10306042;28;20154;-62
2022/12/05 03:08:20;;;;;;;21.42;17.02;;;;;;;4.56;81.65;100071.72;10309114;28;20056;-61
2022/12/05 03:13:38;;;;;;;18.65;15.95;;;;;;;4.57;82.27;100085.75;10312912;28;20132;-63
2022/12/05 03:18:57;;;;;;;22.08;17.83;;;;;;;4.71;82.01;100096.31;10309298;28;20050;-61
2022/12/05 03:24:18;;;;;;;22.90;17.80;;;;;;;4.66;81.98;100108.09;10311596;28;20600;-63
2022/12/05 03:29:35;;;;;;;22.08;17.15;;;;;;;4.64;81.92;100107.31;10308054;28;20493;-62
2022/12/05 03:34:48;;;;;;;20.33;15.32;;;;;;;4.68;82.47;100106.19;10310670;28;20692;-61
2022/12/05 03:40:02;;;;;;;23.40;16.65;;;;;;;4.49;82.27;100101.13;10311028;28;20073;-63
2022/12/05 03:45:11;;;;;;;20.73;16.02;;;;;;;4.63;82.80;100127.56;10309616;28;20049;-63
2022/12/05 03:50:33;;;;;;;21.42;16.52;;;;;;;4.59;82.65;100121.63;10303702;28;20052;-63
2022/12/05 03:55:39;;;;;;;22.67;18.17;;;;;;;4.60;82.85;100133.84;10310861;28;20185;-63
2022/12/05 04:00:45;;;;;;;20.77;15.70;;;;;;;4.60;83.60;100138.28;10305383;28;20678;-63
2022/12/05 04:05:51;;;;;;;19.98;15.88;;;;;;;4.46;83.83;100125.91;10305009;28;20077;-64
2022/12/05 04:10:59;;;;;;;23.52;18.30;;;;;;;4.53;83.42;100127.22;10310939;28;20508;-62
2022/12/05 04:21:37;;;;;;;22.08;16.38;;;;;;;4.63;83.46;100122.28;10309404;28;20100;-61
2022/12/05 04:26:45;;;;;;;23.20;17.42;;;;;;;4.62;84.12;100148.75;10309861;28;20133;-61
2022/12/05 04:31:51;;;;;;;25.30;16.65;;;;;;;4.48;84.71;100141.63;10314904;28;20050;-61
2022/12/05 04:36:58;;;;;;;25.35;18.30;;;;;;;4.42;85.23;100140.19;10307486;28;20049;-60
2022/12/05 04:42:05;;;;;;;23.63;18.58;;;;;;;4.56;84.99;100153.44;10313975;28;20075;-64
2022/12/05 04:47:09;;;;;;;25.55;19.65;;;;;;;4.49;85.78;100162.63;10318956;28;20073;-63
2022/12/05 04:52:12;;;;;;;25.35;17.70;;;;;;;4.49;85.82;100162.63;10316517;28;20058;-63
2022/12/05 04:57:20;;;;;;;28.00;17.98;;;;;;;4.41;85.33;100155.16;10315279;28;20504;-62
2022/12/05 05:02:42;;;;;;;24.67;17.55;;;;;;;4.44;85.65;100175.22;10313294;28;20042;-63
2022/12/05 05:07:46;;;;;;;19.27;15.93;;;;;;;4.56;85.73;100177.19;10315229;28;20497;-63
2022/12/05 05:12:48;;;;;;;21.77;16.17;;;;;;;4.55;84.59;100170.19;10312993;28;20489;-62
2022/12/05 05:17:49;;;;;;;23.35;16.55;;;;;;;4.55;85.08;100178.09;10312439;28;20053;-62
2022/12/05 05:22:55;;;;;;;23.65;16.00;;;;;;;4.66;84.00;100177.47;10314173;28;20128;-64
2022/12/05 05:27:57;;;;;;;22.50;17.80;;;;;;;4.66;83.49;100184.56;10314713;28;20125;-62
2022/12/05 05:32:59;;;;;;;21.27;16.33;;;;;;;4.37;83.49;100153.63;10317641;28;20057;-63
2022/12/05 05:38:00;;;;;;;19.90;15.05;;;;;;;4.63;84.04;100203.19;10317196;28;20071;-63
2022/12/05 05:43:02;;;;;;;24.25;17.10;;;;;;;4.52;84.09;100182.69;10314080;28;20128;-63
2022/12/05 05:48:03;;;;;;;21.25;15.48;;;;;;;4.55;84.52;100187.81;10296031;28;20057;-62
2022/12/05 05:53:05;;;;;;;20.65;15.50;;;;;;;4.52;84.80;100194.09;10313760;28;20114;-64
2022/12/05 05:58:07;;;;;;;24.45;17.50;;;;;;;4.49;85.18;100181.09;10315481;28;20054;-65
2022/12/05 06:03:09;;;;;;;20.48;15.57;;;;;;;4.69;84.80;100195.75;10306530;28;20054;-64
2022/12/05 06:08:10;;;;;;;21.58;16.52;;;;;;;4.57;84.48;100164.84;10310443;28;20069;-64
2022/12/05 06:13:12;;;;;;;24.60;17.33;;;;;;;4.84;84.94;100190.56;10309078;28;20050;-63
2022/12/05 06:18:13;;;;;;;22.83;15.23;;;;;;;4.86;84.36;100183.41;10307679;28;20579;-63
2022/12/05 06:23:15;;;;;;;23.20;16.05;;;;;;;4.87;84.46;100198.31;10306452;28;20049;-63
2022/12/05 06:28:18;;;;;;;22.45;14.73;;;;;;;5.00;83.33;100203.69;10302948;28;20122;-65
2022/12/05 06:33:19;;;;;;;21.70;16.17;;;;;;;4.91;84.03;100208.59;10300301;28;20417;-63
2022/12/05 06:38:21;;;;;;;24.42;16.92;;;;;;;4.93;83.64;100211.97;10306897;28;20375;-62
2022/12/05 06:43:22;;;;;;;23.25;17.60;;;;;;;4.86;83.78;100200.06;10301158;28;20054;-63
2022/12/05 06:48:24;;;;;;;21.73;16.98;;;;;;;4.99;83.93;100215.22;10301932;28;20050;-63
2022/12/05 06:53:27;;;;;;;19.35;14.50;;;;;;;4.91;83.06;100232.31;10308029;28;20058;-63
2022/12/05 06:58:30;;;;;;;22.90;15.63;;;;;;;4.95;82.49;100228.59;10307096;28;20046;-65
2022/12/05 07:03:31;;;;;;;22.88;15.85;;;;;;;4.95;83.33;100231.22;10302414;28;20047;-64
2022/12/05 07:08:33;;;;;;;21.95;16.15;;;;;;;5.03;83.31;100235.19;10305512;28;20054;-63
2022/12/05 07:13:34;;;;;;;19.83;14.93;;;;;;;5.09;83.00;100243.59;10305319;28;20050;-62
2022/12/05 07:18:36;;;;;;;25.15;18.92;;;;;;;4.93;82.17;100225.16;10305965;28;20046;-61
2022/12/05 07:23:37;;;;;;;24.45;17.23;;;;;;;5.08;82.71;100243.69;10303525;28;20066;-61
2022/12/05 07:28:38;;;;;;;24.13;17.33;;;;;;;5.17;83.50;100252.88;10301406;28;20063;-61
2022/12/05 07:33:40;;;;;;;24.75;17.65;;;;;;;5.10;82.17;100262.91;10292171;28;20053;-61
2022/12/05 07:38:43;;;;;;;20.42;15.68;;;;;;;5.03;82.77;100269.47;10299230;28;20049;-61
2022/12/05 07:43:44;;;;;;;20.52;16.50;;;;;;;5.03;82.71;100261.56;10300592;28;20070;-61
2022/12/05 07:48:49;;;;;;;22.27;15.00;;;;;;;5.07;82.91;100284.19;10302284;28;20168;-60
2022/12/05 07:53:50;;;;;;;;;;;;;;;4.91;83.93;100284.25;10299635;28;20688;-60
2022/12/05 07:58:52;;;;;;;22.33;16.08;;;;;;;4.74;84.30;100275.50;10303812;28;19922;-60
2022/12/05 08:03:57;;;;;;;29.30;20.85;;;;;;;4.70;84.26;100286.25;10301848;28;20058;-61
2022/12/05 08:08:58;;;;;;;26.57;19.70;;;;;;;4.67;84.15;100308.41;10302585;28;20057;-60
2022/12/05 08:13:59;;;;;;;23.55;17.45;;;;;;;4.59;84.53;100302.69;10293218;28;20054;-61
2022/12/05 08:19:07;;;;;;;21.38;15.10;;;;;;;4.73;83.95;100309.84;10305428;28;20740;-60
2022/12/05 08:24:09;;;;;;;22.55;16.05;;;;;;;4.62;84.28;100305.16;10306459;28;20054;-62
2022/12/05 08:29:13;;;;;;;23.52;16.58;;;;;;;4.77;83.42;100308.72;10309774;28;20131;-61
2022/12/05 08:34:16;;;;;;;21.75;14.68;;;;;;;4.67;83.79;100294.34;10310377;28;20452;-62
2022/12/05 08:39:18;;;;;;;20.60;14.98;;;;;;;4.79;83.63;100312.16;10310298;28;20467;-61
2022/12/05 08:44:19;;;;;;;20.70;15.32;;;;;;;4.74;83.72;100330.00;10308998;28;20054;-60
2022/12/05 08:49:21;;;;;;;20.33;15.73;;;;;;;4.68;84.31;100341.72;10307388;28;20069;-60
2022/12/05 08:54:22;;;;;;;21.42;14.60;;;;;;;4.54;85.23;100336.38;10304920;28;20057;-61
2022/12/05 08:59:24;;;;;;;19.90;15.40;;;;;;;4.72;84.58;100339.78;10316270;28;20051;-61
2022/12/05 09:04:25;;;;;;;18.88;14.50;;;;;;;4.49;85.66;100335.75;10314286;28;20415;-61
2022/12/05 09:09:27;;;;;;;23.77;15.45;;;;;;;4.48;86.30;100342.81;10333279;28;20140;-61
2022/12/05 09:14:31;;;;;;;25.33;17.20;;;;;;;4.58;86.30;100351.94;10314728;28;20053;-62
2022/12/05 09:19:33;;;;;;;26.17;17.73;;;;;;;4.57;86.85;100359.94;10315510;28;20073;-61
2022/12/05 09:24:34;;;;;;;23.50;16.45;;;;;;;4.57;86.69;100360.75;10309413;28;20050;-60
2022/12/05 09:29:36;;;;;;;23.02;16.55;;;;;;;4.66;86.68;100359.44;10307486;28;20715;-61
2022/12/05 09:34:38;;;;;;;21.80;15.88;;;;;;;4.81;86.26;100375.38;10304065;28;20057;-61
2022/12/05 09:39:39;;;;;;;25.17;16.65;;;;;;;4.71;86.44;100377.63;10309207;28;20066;-62
2022/12/05 09:45:16;;;;;;;19.52;14.02;;;;;;;4.76;86.35;100372.97;10308956;28;20379;-63
2022/12/05 09:50:27;;;;;;;25.63;17.00;;;;;;;4.68;86.91;100376.00;10306248;28;20058;-62
2022/12/05 09:55:37;;;;;;;25.60;17.88;;;;;;;4.70;87.57;100375.91;10303393;28;20175;-62
2022/12/05 10:00:38;;;;;;;26.23;18.80;;;;;;;4.76;86.81;100365.91;10307433;28;20532;-62
2022/12/05 10:05:58;;;;;;;28.20;18.42;;;;;;;4.79;86.87;100375.44;10307366;28;20053;-62
2022/12/05 10:11:05;;;;;;;26.88;18.08;;;;;;;4.77;87.24;100356.19;10304563;28;20132;-63
2022/12/05 10:16:15;;;;;;;28.75;17.67;;;;;;;4.89;87.23;100355.50;10308315;28;20137;-64
2022/12/05 10:21:23;;;;;;;23.05;17.27;;;;;;;5.01;87.10;100369.81;10305682;28;20050;-61
2022/12/05 10:26:31;;;;;;;22.73;16.40;;;;;;;5.17;87.05;100364.53;10305626;28;20046;-62
2022/12/05 10:31:35;;;;;;;27.23;17.75;;;;;;;5.31;86.38;100356.72;10304667;28;20058;-63
2022/12/05 10:36:37;;;;;;;24.17;17.25;;;;;;;5.43;85.99;100352.50;10304017;28;20579;-61
2022/12/05 10:41:38;;;;;;;26.05;17.45;;;;;;;5.39;85.15;100353.63;10305716;28;20567;-62
2022/12/05 10:46:40;;;;;;;24.75;16.48;;;;;;;5.38;85.06;100353.72;10305650;28;20066;-62
2022/12/05 10:51:42;;;;;;;22.70;16.30;;;;;;;5.44;85.49;100340.16;10321281;28;20053;-62
2022/12/05 10:56:51;;;;;;;19.50;15.52;;;;;;;5.39;85.26;100323.72;10301565;28;20484;-62
2022/12/05 11:01:57;;;;;;;22.23;16.30;;;;;;;5.51;85.15;100330.97;10302377;28;20533;-61
2022/12/05 11:07:04;;;;;;;16.67;13.98;;;;;;;5.52;85.24;100337.91;10302836;28;20477;-63
2022/12/05 11:12:16;;;;;;;18.35;14.02;;;;;;;5.55;85.11;100332.47;10301344;28;20046;-61
2022/12/05 11:17:39;;;;;;;20.38;15.20;;;;;;;5.61;84.70;100342.66;10304690;28;20061;-60
2022/12/05 11:22:40;;;;;;;19.50;15.00;;;;;;;5.66;83.89;100339.78;10300695;28;20053;-60
2022/12/05 11:27:48;;;;;;;25.48;17.08;;;;;;;5.78;84.04;100338.16;10304020;28;20654;-61
2022/12/05 11:32:50;;;;;;;20.70;15.68;;;;;;;5.58;82.95;100348.13;10304604;28;20068;-67
2022/12/05 11:37:59;;;;;;;19.42;15.70;;;;;;;5.41;84.86;100351.75;10302641;28;20745;-63
2022/12/05 11:43:13;;;;;;;16.88;13.30;;;;;;;5.25;85.51;100350.91;10303669;28;20053;-62
2022/12/05 11:48:28;;;;;;;14.18;11.85;;;;;;;5.07;87.27;100348.38;10306931;28;20500;-61
2022/12/05 11:53:50;;;;;;;18.45;11.43;;;;;;;5.13;87.47;100355.09;10310939;28;20053;-62
2022/12/05 11:58:57;;;;;;;11.73;10.45;;;;;;;5.30;88.36;100349.72;10328312;28;20568;-62
2022/12/05 12:03:59;;;;;;;14.20;10.30;;;;;;;5.27;87.57;100347.25;10315354;28;20696;-62
2022/12/05 12:09:22;;;;;;;12.18;10.25;;;;;;;5.34;87.62;100339.81;10317856;28;20531;-62
2022/12/05 12:14:46;;;;;;;13.35;10.75;;;;;;;5.28;86.65;100324.34;10319582;28;20056;-63
2022/12/05 12:20:06;;;;;;;13.48;11.18;;;;;;;5.24;86.74;100328.97;10317125;28;20424;-63
2022/12/05 12:25:29;;;;;;;15.30;11.05;;;;;;;5.45;86.14;100348.00;10317536;28;20476;-63
2022/12/05 12:30:49;;;;;;;14.25;11.85;;;;;;;5.40;86.17;100334.19;10313763;28;20046;-63
2022/12/05 12:36:00;;;;;;;14.27;11.80;;;;;;;5.58;85.88;100342.00;10316183;28;20042;-62
2022/12/05 12:41:21;;;;;;;15.50;12.55;;;;;;;5.55;86.21;100350.94;10317795;28;20057;-62
2022/12/05 12:46:42;;;;;;;12.88;10.57;;;;;;;5.50;87.29;100345.09;10314998;28;20045;-64
2022/12/05 12:51:51;;;;;;;14.20;11.27;;;;;;;5.39;87.71;100329.88;10315074;28;20042;-61
2022/12/05 12:57:25;;;;;;;10.88;9.57;;;;;;;5.41;87.11;100340.34;10304246;28;20061;-62
2022/12/05 13:02:46;;;;;;;13.73;12.00;;;;;;;5.47;87.68;100363.75;10303641;28;20432;-62
2022/12/05 13:07:52;;;;;;;14.52;9.82;;;;;;;5.36;87.29;100332.69;10301803;28;20651;-60
2022/12/05 13:12:56;;;;;;;12.57;10.50;;;;;;;5.44;86.98;100345.44;10301565;28;20412;-62
2022/12/05 13:18:00;;;;;;;14.15;10.73;;;;;;;5.41;86.59;100356.19;10310209;28;20045;-63
2022/12/05 13:23:03;;;;;;;14.03;11.23;;;;;;;5.41;87.18;100350.91;10309007;28;20046;-66
2022/12/05 13:28:46;;;;;;;18.10;13.32;;;;;;;5.54;86.78;100341.34;10307240;28;20628;-68
2022/12/05 13:33:49;;;;;;;15.30;12.23;;;;;;;5.64;85.94;100345.16;10295323;28;20060;-64
2022/12/05 13:44:32;;;;;;;17.13;13.45;;;;;;;5.68;86.41;100347.59;10307756;28;20057;-68
2022/12/05 13:49:45;;;;;;;17.33;12.98;;;;;;;5.50;86.92;100350.38;10303371;28;20060;-66
2022/12/05 13:55:02;;;;;;;19.50;14.80;;;;;;;5.50;87.94;100360.94;10320341;28;20073;-66
2022/12/05 14:00:07;;;;;;;17.67;13.93;;;;;;;5.31;88.54;100314.47;10302297;28;20521;-66
2022/12/05 14:05:16;;;;;;;19.03;14.03;;;;;;;5.61;88.13;100352.38;10302287;28;20046;-67
2022/12/05 14:10:26;;;;;;;21.42;14.48;;;;;;;5.63;88.31;100361.91;10301624;28;20467;-65
2022/12/05 14:15:31;;;;;;;17.75;13.60;;;;;;;5.68;88.51;100363.47;10316727;28;20050;-67
2022/12/05 14:20:48;;;;;;;20.08;14.05;;;;;;;5.58;88.94;100374.53;10303629;28;20412;-66
2022/12/05 14:26:14;;;;;;;21.17;15.43;;;;;;;5.55;89.75;100366.78;10304073;28;20784;-66
2022/12/05 14:31:24;;;;;;;18.73;14.25;;;;;;;5.46;89.61;100343.56;10318245;28;20088;-63
2022/12/05 14:36:29;;;;;;;18.08;13.93;;;;;;;5.58;90.09;100357.84;10304657;28;20053;-67
2022/12/05 14:41:34;;;;;;;;;;;;;;;5.77;89.91;100368.19;10316183;28;20054;-64
2022/12/05 14:46:35;;;;;;;16.80;13.07;;;;;;;5.73;89.93;100366.66;10302544;28;19968;-64
2022/12/05 14:51:40;;;;;;;19.05;12.82;;;;;;;5.79;89.84;100376.88;10303862;28;20142;-67
2022/12/05 14:56:44;;;;;;;16.58;12.80;;;;;;;5.65;90.48;100359.19;10301770;28;20053;-67
2022/12/05 15:01:50;;;;;;;17.73;11.75;;;;;;;5.66;91.25;100364.38;10297614;28;20185;-62
2022/12/05 15:07:01;;;;;;;18.02;12.93;;;;;;;5.61;90.89;100334.72;10302089;28;20591;-65
2022/12/05 15:12:06;;;;;;;20.15;12.45;;;;;;;5.50;91.02;100316.03;10307372;28;20064;-64
2022/12/05 15:17:16;;;;;;;17.42;12.10;;;;;;;5.91;90.46;100360.28;10301969;28;20433;-67
2022/12/05 15:22:21;;;;;;;15.00;11.48;;;;;;;5.96;90.66;100368.81;10319791;28;20460;-66
2022/12/05 15:27:23;;;;;;;13.48;10.40;;;;;;;5.98;90.46;100369.59;10310419;28;20369;-66
2022/12/05 15:32:26;;;;;;;13.23;10.32;;;;;;;6.00;89.50;100351.88;10298773;28;20139;-67
2022/12/05 15:38:17;;;;;;;13.82;10.00;;;;;;;6.10;88.72;100375.09;10306514;28;20170;-66
2022/12/05 15:43:28;;;;;;;13.18;8.98;;;;;;;6.16;89.18;100369.44;10140566;29;20100;-67
2022/12/05 15:48:30;;;;;;;10.23;8.45;;;;;;;6.12;88.59;100352.91;10277271;28;20066;-64
2022/12/05 15:53:46;;;;;;;13.20;10.07;;;;;;;6.16;87.65;100353.59;10310533;28;20388;-64
2022/12/05 15:58:58;;;;;;;12.30;10.07;;;;;;;6.24;88.14;100374.25;10304250;28;20743;-65
2022/12/05 16:04:44;;;;;;;11.90;9.65;;;;;;;6.25;88.13;100379.44;10319688;28;20066;-64
2022/12/05 16:09:46;;;;;;;14.55;9.52;;;;;;;5.97;88.10;100338.81;10282023;28;21054;-65
2022/12/05 16:14:51;;;;;;;16.70;11.57;;;;;;;6.14;88.38;100395.09;10298265;28;20456;-66
2022/12/05 16:20:20;;;;;;;16.13;11.07;;;;;;;6.27;88.69;100382.84;10292279;28;20050;-68
2022/12/05 16:25:34;;;;;;;18.35;13.95;;;;;;;6.29;88.70;100386.25;10301656;28;20522;-64
2022/12/05 16:30:36;;;;;;;19.20;14.60;;;;;;;6.32;88.63;100388.72;10293867;28;20158;-61
2022/12/05 16:35:41;;;;;;;22.58;15.45;;;;;;;6.26;89.33;100385.59;10302661;28;20046;-62
2022/12/05 16:40:48;;;;;;;22.88;15.15;;;;;;;6.19;89.53;100385.94;10310875;28;20049;-64
2022/12/05 16:45:51;;;;;;;21.10;16.00;;;;;;;6.10;89.48;100381.22;10308990;28;20058;-63
2022/12/05 16:51:12;;;;;;;19.48;14.65;;;;;;;6.12;90.56;100386.41;10310346;28;20193;-64
2022/12/05 16:56:18;;;;;;;21.65;15.43;;;;;;;6.13;90.25;100381.03;10307004;28;20061;-63
2022/12/05 17:01:22;;;;;;;19.30;16.77;;;;;;;6.22;89.82;100382.28;10296304;28;20237;-68
2022/12/05 17:06:25;;;;;;;24.40;18.05;;;;;;;6.36;89.69;100392.88;10306220;28;20061;-63
2022/12/05 17:11:32;;;;;;;21.17;15.80;;;;;;;6.29;89.51;100396.84;10306183;28;20064;-65
2022/12/05 17:16:34;;;;;;;21.17;16.20;;;;;;;6.23;90.17;100399.84;10304823;28;20050;-65
2022/12/05 17:21:36;;;;;;;25.45;18.35;;;;;;;6.19;89.89;100406.25;10301671;28;20160;-63
2022/12/05 17:26:38;;;;;;;21.60;16.23;;;;;;;6.01;90.84;100402.91;10307891;28;20060;-64
2022/12/05 17:31:39;;;;;;;18.45;15.85;;;;;;;6.01;91.31;100408.19;10308490;28;20282;-64
2022/12/05 17:36:44;;;;;;;20.58;16.25;;;;;;;6.05;90.46;100406.22;10325179;28;20050;-64
2022/12/05 17:41:46;;;;;;;;;;;;;;;6.01;90.92;100406.41;10310818;28;20054;-64
2022/12/05 17:46:48;;;;;;;19.45;15.40;;;;;;;5.97;91.06;100401.38;10303725;28;19969;-65
2022/12/05 17:51:52;;;;;;;17.67;14.57;;;;;;;5.97;90.46;100422.53;10310185;28;20618;-63
2022/12/05 17:57:14;;;;;;;19.50;14.45;;;;;;;5.94;91.31;100417.41;10309030;28;20229;-64
2022/12/05 18:02:17;;;;;;;18.80;14.35;;;;;;;5.96;90.96;100419.00;10304193;28;20163;-63
2022/12/05 18:07:19;;;;;;;17.30;14.98;;;;;;;5.99;90.16;100410.94;10303964;28;20062;-66
2022/12/05 18:12:20;;;;;;;20.08;14.68;;;;;;;6.00;90.28;100427.63;10305192;28;20128;-64
2022/12/05 18:17:23;;;;;;;16.15;13.50;;;;;;;5.82;90.69;100390.78;10304986;28;20050;-64
2022/12/05 18:22:26;;;;;;;16.20;12.95;;;;;;;6.13;89.70;100422.50;10306810;28;20049;-64
2022/12/05 18:27:29;;;;;;;16.35;13.00;;;;;;;6.05;89.62;100422.06;10306083;28;20049;-62
2022/12/05 18:32:30;;;;;;;14.30;11.40;;;;;;;5.92;89.70;100403.44;10304967;28;20053;-62
2022/12/05 18:37:35;;;;;;;15.27;12.38;;;;;;;5.99;89.85;100404.78;10305712;28;20060;-64
2022/12/05 18:42:36;;;;;;;13.38;11.27;;;;;;;6.10;88.54;100418.22;10308507;28;20128;-64
2022/12/05 18:47:38;;;;;;;12.93;10.90;;;;;;;6.06;88.79;100418.50;10311506;28;20104;-63
2022/12/05 18:52:39;;;;;;;13.23;11.25;;;;;;;5.99;88.96;100410.06;10306626;28;20056;-62
2022/12/05 18:57:41;;;;;;;13.60;10.23;;;;;;;6.06;88.04;100418.50;10301822;28;20053;-63
2022/12/05 19:02:43;;;;;;;9.88;8.30;;;;;;;5.94;87.18;100422.69;10309473;28;20135;-63
2022/12/05 19:07:45;;;;;;;9.43;8.43;;;;;;;5.96;87.96;100412.84;10311928;28;20085;-64
2022/12/05 19:12:46;;;;;;;11.00;7.38;;;;;;;6.06;86.65;100429.06;10307904;28;20060;-63
2022/12/05 19:17:48;;;;;;;9.98;7.40;;;;;;;6.00;86.32;100417.94;10304968;28;20060;-65
2022/12/05 19:22:50;;;;;;;7.97;7.18;;;;;;;6.00;86.54;100417.94;10305607;28;20496;-63
2022/12/05 19:27:56;;;;;;;6.82;5.72;;;;;;;5.91;85.44;100420.22;10307138;28;20068;-63
2022/12/05 19:32:57;;;;;;;7.32;6.00;;;;;;;5.76;86.46;100414.03;10307557;28;20053;-66
2022/12/05 19:37:59;;;;;;;6.60;5.45;;;;;;;5.87;85.85;100431.91;10306301;28;20520;-63
2022/12/05 19:43:02;;;;;;;7.72;5.35;;;;;;;5.73;85.38;100424.78;10299765;28;20053;-62
2022/12/05 19:48:03;;;;;;;6.30;5.20;;;;;;;5.71;85.28;100438.06;10303319;28;20595;-65
2022/12/05 19:53:05;;;;;;;6.30;4.63;;;;;;;5.63;85.60;100420.03;10295169;28;20054;-65
2022/12/05 19:58:06;;;;;;;40.47;37.38;;;;;;;5.66;85.98;100430.41;10302654;28;20373;-64
2022/12/05 20:03:07;;;;;;;8.15;7.40;;;;;;;5.72;85.87;100436.28;10294832;28;20046;-68
2022/12/05 20:08:12;;;;;;;12.77;11.48;;;;;;;5.76;84.87;100433.38;10294918;28;20058;-68
2022/12/05 20:13:14;;;;;;;4.63;4.13;;;;;;;5.53;84.74;100418.84;10304590;28;20451;-65
2022/12/05 20:18:36;;;;;;;5.47;4.93;;;;;;;5.62;84.80;100439.44;10308260;28;20081;-67
2022/12/05 20:23:38;;;;;;;4.68;4.18;;;;;;;5.64;84.95;100431.44;10302674;28;20050;-64
2022/12/05 20:28:40;;;;;;;5.47;4.97;;;;;;;5.70;85.18;100436.34;10309218;28;20042;-64
2022/12/05 20:33:42;;;;;;;4.50;4.07;;;;;;;5.64;85.31;100437.59;10303092;28;20084;-64
2022/12/05 20:38:44;;;;;;;5.72;5.22;;;;;;;5.55;85.32;100424.88;10305455;28;20287;-69
2022/12/05 20:43:47;;;;;;;5.18;4.65;;;;;;;5.71;85.66;100442.50;10304506;28;20104;-66
2022/12/05 20:48:50;;;;;;;9.75;8.82;;;;;;;5.73;85.07;100440.63;10296865;28;20374;-68
2022/12/05 20:53:51;;;;;;;22.85;20.85;;;;;;;5.66;85.18;100432.22;10306586;28;20185;-67
2022/12/05 20:58:56;;;;;;;11.82;10.63;;;;;;;5.60;85.56;100435.19;10300989;28;20484;-64
2022/12/05 21:03:58;;;;;;;5.78;5.28;;;;;;;5.60;85.21;100420.19;10298049;28;20296;-62
2022/12/05 21:09:00;;;;;;;5.45;4.90;;;;;;;5.70;85.56;100424.94;10308573;28;20062;-64
2022/12/05 21:14:03;;;;;;;6.22;5.63;;;;;;;5.64;85.76;100432.31;10316625;28;20050;-63
2022/12/05 21:19:05;;;;;;;7.95;7.35;;;;;;;5.58;85.81;100416.78;10309521;28;20300;-61
2022/12/05 21:24:08;;;;;;;14.52;13.15;;;;;;;5.71;85.28;100426.66;10306119;28;20076;-63
2022/12/05 21:29:09;;;;;;;9.13;8.32;;;;;;;5.75;85.80;100433.44;10306027;28;20152;-64
2022/12/05 21:34:14;;;;;;;4.97;4.47;;;;;;;5.80;84.97;100432.25;10316782;28;21578;-63
2022/12/05 21:39:16;;;;;;;6.38;5.15;;;;;;;5.78;85.45;100433.28;10316827;28;20056;-65
2022/12/05 21:44:18;;;;;;;5.38;4.88;;;;;;;5.81;85.02;100422.53;10319379;28;20144;-64
2022/12/05 21:49:20;;;;;;;6.03;5.43;;;;;;;5.81;85.25;100425.16;10316861;28;20160;-64
2022/12/05 21:54:21;;;;;;;5.45;4.95;;;;;;;5.86;84.83;100425.78;10313107;28;20049;-62
2022/12/05 21:59:22;;;;;;;5.68;5.18;;;;;;;5.94;84.83;100427.97;10309747;28;20870;-63
2022/12/05 22:04:24;;;;;;;6.18;5.15;;;;;;;6.03;84.45;100426.59;10303481;28;20053;-61
2022/12/05 22:09:25;;;;;;;21.73;15.68;;;;;;;5.87;84.39;100416.91;10299913;28;20061;-62
2022/12/05 22:14:26;;;;;;;7.88;5.50;;;;;;;5.98;85.26;100425.09;10297397;28;20204;-61
2022/12/05 22:19:28;;;;;;;6.10;5.43;;;;;;;6.03;84.68;100421.31;10300248;28;20045;-62
2022/12/05 22:24:29;;;;;;;6.57;5.93;;;;;;;6.17;84.35;100434.56;10301600;28;20043;-63
2022/12/05 22:29:30;;;;;;;6.43;5.50;;;;;;;6.12;84.72;100426.91;10305142;28;20054;-63
2022/12/05 22:34:32;;;;;;;8.85;8.05;;;;;;;6.10;85.08;100427.97;10312099;28;20536;-62
2022/12/05 22:39:33;;;;;;;7.85;7.05;;;;;;;6.06;84.76;100413.22;10310957;28;20475;-61
2022/12/05 22:44:34;;;;;;;7.40;6.22;;;;;;;6.01;85.03;100409.03;10312588;28;20081;-63
2022/12/05 22:49:36;;;;;;;6.43;5.82;;;;;;;6.17;84.74;100405.47;10305687;28;20144;-63
2022/12/05 22:54:38;;;;;;;7.47;6.78;;;;;;;6.26;84.64;100427.88;10310108;28;20050;-62
2022/12/05 22:59:39;;;;;;;6.78;5.47;;;;;;;6.24;83.85;100412.09;10314328;28;20065;-61
2022/12/05 23:04:40;;;;;;;7.25;5.18;;;;;;;6.26;83.66;100412.00;10306354;28;20707;-62
2022/12/05 23:09:44;;;;;;;6.18;5.57;;;;;;;6.30;83.90;100403.81;10308183;28;20543;-63
2022/12/05 23:14:45;;;;;;;6.07;5.50;;;;;;;6.32;83.96;100407.22;10309023;28;20326;-61
2022/12/05 23:19:47;;;;;;;8.23;6.70;;;;;;;6.25;85.00;100405.88;10311288;28;20054;-62
2022/12/05 23:24:48;;;;;;;5.72;5.22;;;;;;;6.23;85.27;100399.84;10311618;28;20468;-62
2022/12/05 23:29:49;;;;;;;6.15;5.55;;;;;;;6.17;86.01;100402.84;10306068;28;20050;-61